Nagaleader — VRDD5 — position and weather

sailwx.info

Track history (hours):
 
Tides and Currents Weather Stations Pressure Air Temp Water Temp Dewpoint Dewpoint Depression Visibility Wind Speed Wind Dir Waves Ship Positions

Nagaleader

Last reported at 2014-Sep-20 19:29 UTC. Time now 2014-Sep-21 08:09 UTC.
Position N 24°56' E 119°16'.

Length 113 m; draft 5.4 m.

Type: Cargo ship. MMSI: 477926700.

Date/timePositionNaut miles runAvg speedWind from/ knotsBaromVisibWave heightAir tempDewpointWater temp
2014-Sep-20 19:29N 24°56' E 119°16'8 8.9
2014-Sep-20 18:33N 24°51' E 119°09'8 8.1
2014-Sep-20 17:33N 24°45' E 119°02'8 7.6
2014-Sep-20 16:33N 24°40' E 118°57'9 8.0
2014-Sep-20 15:23N 24°32' E 118°50'114 7.6
2014-Sep-20 00:25N 22°50' E 119°47'1112.8
2014-Sep-19 23:33N 22°43' E 119°56'1312.9
2014-Sep-19 22:33N 22°35' E 120°06'1211.8
2014-Sep-19 21:33N 22°33' E 120°19'0 0.4
2014-Sep-19 20:28N 22°34' E 120°19'0 0.0
2014-Sep-19 19:31N 22°34' E 120°19'0 0.0
2014-Sep-19 18:28N 22°34' E 120°19'0 0.0
2014-Sep-19 17:28N 22°34' E 120°19'0 0.0
2014-Sep-19 16:28N 22°34' E 120°19'0 0.0
2014-Sep-19 15:28N 22°34' E 120°19'0 0.0
2014-Sep-19 14:31N 22°34' E 120°19'0 0.0
2014-Sep-19 13:28N 22°34' E 120°19'1 1.2
2014-Sep-19 12:32N 22°33' E 120°20'0 0.0
2014-Sep-19 11:32N 22°33' E 120°20'0 0.0
2014-Sep-19 10:26N 22°33' E 120°20'0 0.0
2014-Sep-19 09:32N 22°33' E 120°20'0 0.0
2014-Sep-19 08:32N 22°33' E 120°20'0 0.0
2014-Sep-19 07:14N 22°33' E 120°20'0 0.0
2014-Sep-19 06:32N 22°33' E 120°20'2 2.1
2014-Sep-19 05:28N 22°32' E 120°18'0 0.0
2014-Sep-19 04:16N 22°32' E 120°18'0 0.0
2014-Sep-19 03:25N 22°32' E 120°18'0 0.0
2014-Sep-19 02:28N 22°32' E 120°18'0 0.0
2014-Sep-19 01:28N 22°32' E 120°18'0 0.0
2014-Sep-19 00:28N 22°32' E 120°18'0 0.1
2014-Sep-18 23:28N 22°32' E 120°18'0 0.1
2014-Sep-18 22:28N 22°32' E 120°18'0 0.1
2014-Sep-18 21:22N 22°32' E 120°18'0 0.0
2014-Sep-18 20:28N 22°32' E 120°18'0 0.0
2014-Sep-18 19:28N 22°32' E 120°18'0 0.0
2014-Sep-18 18:33N 22°32' E 120°18'5 4.7
2014-Sep-18 17:33N 22°33' E 120°13'1312.9
2014-Sep-18 16:33N 22°44' E 120°07'7412.3
2014-Sep-18 10:33N 23°57' E 119°55'13010.8
2014-Sep-17 22:33N 26°05' E 119°32'5 2.7
2014-Sep-17 20:32N 26°00' E 119°29'0 0.1
2014-Sep-17 19:32N 26°00' E 119°29'0 0.0
2014-Sep-17 18:20N 26°00' E 119°29'0 0.1
2014-Sep-17 17:26N 26°00' E 119°29'0 0.0
2014-Sep-17 16:32N 26°00' E 119°29'0 0.0
2014-Sep-17 15:26N 26°00' E 119°29'0 0.0
2014-Sep-17 14:26N 26°00' E 119°29'0 0.0
2014-Sep-17 13:32N 26°00' E 119°29'0 0.0
2014-Sep-17 12:32N 26°00' E 119°29'0 0.0
2014-Sep-17 11:20N 26°00' E 119°29'0 0.0
2014-Sep-17 10:32N 26°00' E 119°29'0 0.0
2014-Sep-17 09:32N 26°00' E 119°29'0 0.0
2014-Sep-17 08:32N 26°00' E 119°29'0 0.0
2014-Sep-17 07:26N 26°00' E 119°29'0 0.0
2014-Sep-17 06:32N 26°00' E 119°29'0 0.0
2014-Sep-17 05:32N 26°00' E 119°29'0 0.1
2014-Sep-17 04:32N 26°00' E 119°29'0 0.0
2014-Sep-17 03:20N 26°00' E 119°29'0 0.1
2014-Sep-17 02:32N 26°00' E 119°29'0 0.0
2014-Sep-17 01:31N 26°00' E 119°29'0 0.0
2014-Sep-17 00:31N 26°00' E 119°29'0 0.0
2014-Sep-16 23:31N 26°00' E 119°29'0 0.0
2014-Sep-16 22:25N 26°00' E 119°29'0 0.0
2014-Sep-16 21:25N 26°00' E 119°29'0 0.0
2014-Sep-16 20:25N 26°00' E 119°29'0 0.0
2014-Sep-16 19:19N 26°00' E 119°29'0 0.0
2014-Sep-16 18:31N 26°00' E 119°29'0 0.0
2014-Sep-16 17:31N 26°00' E 119°29'0 0.2
2014-Sep-16 16:34N 26°00' E 119°29'195 9.7
2014-Sep-15 20:33N 22°48' E 120°06'1211.7
2014-Sep-15 19:33N 22°38' E 120°11'8 8.5
2014-Sep-15 18:33N 22°33' E 120°19'0 0.4
2014-Sep-15 17:29N 22°34' E 120°19'0 0.0
2014-Sep-15 16:29N 22°34' E 120°19'0 0.0
2014-Sep-15 15:29N 22°34' E 120°19'0 0.0
2014-Sep-15 14:29N 22°34' E 120°19'0 0.0
2014-Sep-15 13:29N 22°34' E 120°19'0 0.0
2014-Sep-15 12:29N 22°34' E 120°19'0 0.0
2014-Sep-15 11:29N 22°34' E 120°19'0 0.0
2014-Sep-15 09:25N 22°34' E 120°19'2 2.5
2014-Sep-15 08:32N 22°32' E 120°17'0 0.3
2014-Sep-15 07:31N 22°32' E 120°17'0 0.0
2014-Sep-15 06:31N 22°32' E 120°17'0 0.0
2014-Sep-15 05:31N 22°32' E 120°17'0 0.1
2014-Sep-15 04:31N 22°32' E 120°17'0 0.1
2014-Sep-15 03:31N 22°32' E 120°17'0 0.0
2014-Sep-15 02:31N 22°32' E 120°17'0 0.0
2014-Sep-15 01:31N 22°32' E 120°17'0 0.2
2014-Sep-15 00:31N 22°32' E 120°17'0 0.0
2014-Sep-14 23:33N 22°32' E 120°17'9 9.2
2014-Sep-14 22:34N 22°38' E 120°10'20811.5
2014-Sep-14 04:32N 26°05' E 119°45'10 9.0
2014-Sep-14 03:27N 26°08' E 119°35'9 9.7
2014-Sep-14 02:34N 26°01' E 119°29'1 0.7
2014-Sep-14 01:23N 26°00' E 119°29'0 0.0
2014-Sep-13 21:11N 26°00' E 119°29'0 0.0
2014-Sep-13 19:23N 26°00' E 119°29'0 0.0
2014-Sep-13 18:29N 26°00' E 119°29'0 0.0
2014-Sep-13 17:29N 26°00' E 119°29'0 0.0
2014-Sep-13 16:29N 26°00' E 119°29'0 0.0
2014-Sep-13 15:29N 26°00' E 119°29'0 0.0
2014-Sep-13 14:29N 26°00' E 119°29'0 0.0
2014-Sep-13 13:29N 26°00' E 119°29'0 0.0
2014-Sep-13 12:29N 26°00' E 119°29'0 0.0
2014-Sep-13 10:29N 26°00' E 119°29'0 0.0
2014-Sep-13 09:23N 26°00' E 119°29'0 0.0
2014-Sep-13 08:29N 26°00' E 119°29'0 0.0
2014-Sep-13 07:29N 26°00' E 119°29'0 0.0
2014-Sep-13 06:29N 26°00' E 119°29'0 0.3
2014-Sep-13 05:33N 26°00' E 119°29'19211.7
2014-Sep-12 13:08N 22°51' E 120°05'813.0
2014-Sep-12 12:33N 22°44' E 120°08'1211.6
2014-Sep-12 11:33N 22°34' E 120°13'6 0.5
2014-Sep-11 22:15N 22°33' E 120°20'4 5.4
2014-Sep-11 21:33N 22°32' E 120°16'3 3.2
2014-Sep-11 20:33N 22°33' E 120°12'1313.0
2014-Sep-11 19:33N 22°45' E 120°07'15911.9
2014-Sep-11 06:06N 25°24' E 119°58'4412.2
2014-Sep-11 02:28N 26°06' E 119°42'8 8.5
2014-Sep-11 01:33N 26°07' E 119°33'7 7.4
2014-Sep-11 00:33N 26°01' E 119°29'0 0.3
2014-Sep-10 23:29N 26°00' E 119°29'0 0.0
2014-Sep-10 22:29N 26°00' E 119°29'0 0.0
2014-Sep-10 21:17N 26°00' E 119°29'0 0.0
2014-Sep-10 20:29N 26°00' E 119°29'  
Track history (hours):
 
Tides and Currents Weather Stations Pressure Air Temp Water Temp Dewpoint Dewpoint Depression Visibility Wind Speed Wind Dir Waves Ship Positions

Nagaleader

Last reported at 2014-Sep-20 19:29 UTC. Time now 2014-Sep-21 08:09 UTC.
Position N 24°56' E 119°16'.

Length 113 m; draft 5.4 m.

Type: Cargo ship. MMSI: 477926700.

Date/timePositionNaut miles runAvg speedWind from/ knotsBaromVisibWave heightAir tempDewpointWater temp
2014-Sep-20 19:29N 24°56' E 119°16'8 8.9
2014-Sep-20 18:33N 24°51' E 119°09'8 8.1
2014-Sep-20 17:33N 24°45' E 119°02'8 7.6
2014-Sep-20 16:33N 24°40' E 118°57'9 8.0
2014-Sep-20 15:23N 24°32' E 118°50'114 7.6
2014-Sep-20 00:25N 22°50' E 119°47'1112.8
2014-Sep-19 23:33N 22°43' E 119°56'1312.9
2014-Sep-19 22:33N 22°35' E 120°06'1211.8
2014-Sep-19 21:33N 22°33' E 120°19'0 0.4
2014-Sep-19 20:28N 22°34' E 120°19'0 0.0
2014-Sep-19 19:31N 22°34' E 120°19'0 0.0
2014-Sep-19 18:28N 22°34' E 120°19'0 0.0
2014-Sep-19 17:28N 22°34' E 120°19'0 0.0
2014-Sep-19 16:28N 22°34' E 120°19'0 0.0
2014-Sep-19 15:28N 22°34' E 120°19'0 0.0
2014-Sep-19 14:31N 22°34' E 120°19'0 0.0
2014-Sep-19 13:28N 22°34' E 120°19'1 1.2
2014-Sep-19 12:32N 22°33' E 120°20'0 0.0
2014-Sep-19 11:32N 22°33' E 120°20'0 0.0
2014-Sep-19 10:26N 22°33' E 120°20'0 0.0
2014-Sep-19 09:32N 22°33' E 120°20'0 0.0
2014-Sep-19 08:32N 22°33' E 120°20'0 0.0
2014-Sep-19 07:14N 22°33' E 120°20'0 0.0
2014-Sep-19 06:32N 22°33' E 120°20'2 2.1
2014-Sep-19 05:28N 22°32' E 120°18'0 0.0
2014-Sep-19 04:16N 22°32' E 120°18'0 0.0
2014-Sep-19 03:25N 22°32' E 120°18'0 0.0
2014-Sep-19 02:28N 22°32' E 120°18'0 0.0
2014-Sep-19 01:28N 22°32' E 120°18'0 0.0
2014-Sep-19 00:28N 22°32' E 120°18'0 0.1
2014-Sep-18 23:28N 22°32' E 120°18'0 0.1
2014-Sep-18 22:28N 22°32' E 120°18'0 0.1
2014-Sep-18 21:22N 22°32' E 120°18'0 0.0
2014-Sep-18 20:28N 22°32' E 120°18'0 0.0
2014-Sep-18 19:28N 22°32' E 120°18'0 0.0
2014-Sep-18 18:33N 22°32' E 120°18'5 4.7
2014-Sep-18 17:33N 22°33' E 120°13'1312.9
2014-Sep-18 16:33N 22°44' E 120°07'7412.3
2014-Sep-18 10:33N 23°57' E 119°55'13010.8
2014-Sep-17 22:33N 26°05' E 119°32'5 2.7
2014-Sep-17 20:32N 26°00' E 119°29'0 0.1
2014-Sep-17 19:32N 26°00' E 119°29'0 0.0
2014-Sep-17 18:20N 26°00' E 119°29'0 0.1
2014-Sep-17 17:26N 26°00' E 119°29'0 0.0
2014-Sep-17 16:32N 26°00' E 119°29'0 0.0
2014-Sep-17 15:26N 26°00' E 119°29'0 0.0
2014-Sep-17 14:26N 26°00' E 119°29'0 0.0
2014-Sep-17 13:32N 26°00' E 119°29'0 0.0
2014-Sep-17 12:32N 26°00' E 119°29'0 0.0
2014-Sep-17 11:20N 26°00' E 119°29'0 0.0
2014-Sep-17 10:32N 26°00' E 119°29'0 0.0
2014-Sep-17 09:32N 26°00' E 119°29'0 0.0
2014-Sep-17 08:32N 26°00' E 119°29'0 0.0
2014-Sep-17 07:26N 26°00' E 119°29'0 0.0
2014-Sep-17 06:32N 26°00' E 119°29'0 0.0
2014-Sep-17 05:32N 26°00' E 119°29'0 0.1
2014-Sep-17 04:32N 26°00' E 119°29'0 0.0
2014-Sep-17 03:20N 26°00' E 119°29'0 0.1
2014-Sep-17 02:32N 26°00' E 119°29'0 0.0
2014-Sep-17 01:31N 26°00' E 119°29'0 0.0
2014-Sep-17 00:31N 26°00' E 119°29'0 0.0
2014-Sep-16 23:31N 26°00' E 119°29'0 0.0
2014-Sep-16 22:25N 26°00' E 119°29'0 0.0
2014-Sep-16 21:25N 26°00' E 119°29'0 0.0
2014-Sep-16 20:25N 26°00' E 119°29'0 0.0
2014-Sep-16 19:19N 26°00' E 119°29'0 0.0
2014-Sep-16 18:31N 26°00' E 119°29'0 0.0
2014-Sep-16 17:31N 26°00' E 119°29'0 0.2
2014-Sep-16 16:34N 26°00' E 119°29'195 9.7
2014-Sep-15 20:33N 22°48' E 120°06'1211.7
2014-Sep-15 19:33N 22°38' E 120°11'8 8.5
2014-Sep-15 18:33N 22°33' E 120°19'0 0.4
2014-Sep-15 17:29N 22°34' E 120°19'0 0.0
2014-Sep-15 16:29N 22°34' E 120°19'0 0.0
2014-Sep-15 15:29N 22°34' E 120°19'0 0.0
2014-Sep-15 14:29N 22°34' E 120°19'0 0.0
2014-Sep-15 13:29N 22°34' E 120°19'0 0.0
2014-Sep-15 12:29N 22°34' E 120°19'0 0.0
2014-Sep-15 11:29N 22°34' E 120°19'0 0.0
2014-Sep-15 09:25N 22°34' E 120°19'2 2.5
2014-Sep-15 08:32N 22°32' E 120°17'0 0.3
2014-Sep-15 07:31N 22°32' E 120°17'0 0.0
2014-Sep-15 06:31N 22°32' E 120°17'0 0.0
2014-Sep-15 05:31N 22°32' E 120°17'0 0.1
2014-Sep-15 04:31N 22°32' E 120°17'0 0.1
2014-Sep-15 03:31N 22°32' E 120°17'0 0.0
2014-Sep-15 02:31N 22°32' E 120°17'0 0.0
2014-Sep-15 01:31N 22°32' E 120°17'0 0.2
2014-Sep-15 00:31N 22°32' E 120°17'0 0.0
2014-Sep-14 23:33N 22°32' E 120°17'9 9.2
2014-Sep-14 22:34N 22°38' E 120°10'20811.5
2014-Sep-14 04:32N 26°05' E 119°45'10 9.0
2014-Sep-14 03:27N 26°08' E 119°35'9 9.7
2014-Sep-14 02:34N 26°01' E 119°29'1 0.7
2014-Sep-14 01:23N 26°00' E 119°29'0 0.0
2014-Sep-13 21:11N 26°00' E 119°29'0 0.0
2014-Sep-13 19:23N 26°00' E 119°29'0 0.0
2014-Sep-13 18:29N 26°00' E 119°29'0 0.0
2014-Sep-13 17:29N 26°00' E 119°29'0 0.0
2014-Sep-13 16:29N 26°00' E 119°29'0 0.0
2014-Sep-13 15:29N 26°00' E 119°29'0 0.0
2014-Sep-13 14:29N 26°00' E 119°29'0 0.0
2014-Sep-13 13:29N 26°00' E 119°29'0 0.0
2014-Sep-13 12:29N 26°00' E 119°29'0 0.0
2014-Sep-13 10:29N 26°00' E 119°29'0 0.0
2014-Sep-13 09:23N 26°00' E 119°29'0 0.0
2014-Sep-13 08:29N 26°00' E 119°29'0 0.0
2014-Sep-13 07:29N 26°00' E 119°29'0 0.0
2014-Sep-13 06:29N 26°00' E 119°29'0 0.3
2014-Sep-13 05:33N 26°00' E 119°29'19211.7
2014-Sep-12 13:08N 22°51' E 120°05'813.0
2014-Sep-12 12:33N 22°44' E 120°08'1211.6
2014-Sep-12 11:33N 22°34' E 120°13'6 0.5
2014-Sep-11 22:15N 22°33' E 120°20'4 5.4
2014-Sep-11 21:33N 22°32' E 120°16'3 3.2
2014-Sep-11 20:33N 22°33' E 120°12'1313.0
2014-Sep-11 19:33N 22°45' E 120°07'15911.9
2014-Sep-11 06:06N 25°24' E 119°58'4412.2
2014-Sep-11 02:28N 26°06' E 119°42'8 8.5
2014-Sep-11 01:33N 26°07' E 119°33'7 7.4
2014-Sep-11 00:33N 26°01' E 119°29'0 0.3
2014-Sep-10 23:29N 26°00' E 119°29'0 0.0
2014-Sep-10 22:29N 26°00' E 119°29'0 0.0
2014-Sep-10 21:17N 26°00' E 119°29'0 0.0
2014-Sep-10 20:29N 26°00' E 119°29'  

Dump ship's entire track history